createdAt,value
2023-07-20T00:02:49.338Z,388.66
2023-07-20T00:08:14.702Z,386.88
2023-07-20T00:13:07.087Z,389.11
2023-07-20T00:18:07.265Z,388.44
2023-07-20T00:23:07.045Z,387.77
2023-07-20T00:28:06.990Z,390.23
2023-07-20T00:33:06.898Z,388.88
2023-07-20T00:38:06.812Z,389.56
2023-07-20T00:43:06.730Z,388.44
2023-07-20T00:48:06.850Z,389.11
2023-07-20T00:53:06.647Z,387.10
2023-07-20T00:58:06.590Z,386.21
2023-07-20T01:03:06.624Z,384.45
2023-07-20T01:08:06.444Z,381.62
2023-07-20T01:13:06.336Z,384.23
2023-07-20T01:18:06.267Z,389.11
2023-07-20T01:23:06.244Z,392.73
2023-07-20T01:28:06.142Z,391.82
2023-07-20T01:33:06.082Z,390.69
2023-07-20T01:38:06.029Z,392.28
2023-07-20T01:43:05.881Z,387.10
2023-07-20T01:48:05.861Z,386.88
2023-07-20T01:53:05.779Z,384.89
2023-07-20T01:58:05.728Z,384.23
2023-07-20T02:03:05.775Z,381.19
2023-07-20T02:08:05.688Z,382.05
2023-07-20T02:13:05.523Z,379.90
2023-07-20T02:18:05.559Z,378.62
2023-07-20T02:23:05.475Z,377.98
2023-07-20T02:28:05.390Z,379.26
2023-07-20T02:33:05.268Z,375.55
2023-07-20T02:38:05.195Z,375.13
2023-07-20T02:43:05.103Z,373.44
2023-07-20T02:48:05.135Z,372.18
2023-07-20T02:53:04.939Z,370.94
2023-07-20T02:58:04.904Z,373.44
2023-07-20T03:03:04.884Z,371.35
2023-07-20T03:08:04.750Z,371.35
2023-07-20T03:13:04.664Z,369.70
2023-07-20T03:18:04.664Z,370.94
2023-07-20T03:23:04.548Z,372.18
2023-07-20T03:28:04.564Z,369.28
2023-07-20T03:33:04.526Z,371.35
2023-07-20T03:38:04.446Z,371.35
2023-07-20T03:43:04.382Z,372.18
2023-07-20T03:48:04.365Z,371.35
2023-07-20T03:53:05.930Z,372.60
2023-07-20T03:58:04.122Z,373.02
2023-07-20T04:03:04.264Z,371.77
2023-07-20T04:08:04.064Z,375.13
2023-07-20T04:13:03.848Z,374.71
2023-07-20T04:18:18.460Z,373.02
2023-07-20T04:23:10.931Z,373.02
2023-07-20T04:28:11.312Z,372.18
2023-07-20T04:33:10.800Z,373.02
2023-07-20T04:38:10.765Z,373.86
2023-07-20T04:43:10.676Z,372.18
2023-07-20T04:48:10.602Z,375.55
2023-07-20T04:53:10.525Z,371.35
2023-07-20T04:58:10.414Z,371.77
2023-07-20T05:03:10.442Z,367.24
2023-07-20T05:08:10.233Z,368.46
2023-07-20T05:13:10.180Z,369.28
2023-07-20T05:18:10.240Z,366.02
2023-07-20T05:23:10.073Z,366.43
2023-07-20T05:28:09.956Z,365.62
2023-07-20T05:33:09.942Z,365.22
2023-07-20T05:38:09.853Z,365.22
2023-07-20T05:43:09.807Z,362.03
2023-07-20T05:48:09.737Z,356.58
2023-07-20T05:53:09.685Z,356.58
2023-07-20T05:58:09.557Z,353.55
2023-07-20T06:03:09.582Z,350.19
2023-07-20T06:08:09.426Z,349.82
2023-07-20T06:13:09.423Z,349.82
2023-07-20T06:18:09.373Z,352.42
2023-07-20T06:23:09.314Z,351.67
2023-07-20T06:28:09.157Z,355.06
2023-07-20T06:33:09.397Z,352.05
2023-07-20T06:48:08.889Z,341.54
2023-07-20T06:53:08.862Z,343.30
2023-07-20T06:58:08.774Z,346.89
2023-07-20T07:03:08.815Z,338.40
2023-07-20T07:08:08.664Z,325.46
2023-07-20T07:13:08.601Z,308.51
2023-07-20T07:18:08.533Z,293.76
2023-07-20T07:23:08.417Z,289.91
2023-07-20T07:28:08.368Z,282.51
2023-07-20T07:33:08.386Z,277.31
2023-07-20T07:38:19.322Z,272.98
2023-07-20T07:43:09.223Z,257.91
2023-07-20T07:48:08.234Z,244.06
2023-07-20T07:53:08.149Z,233.58
2023-07-20T07:58:07.972Z,226.25
2023-07-20T08:03:07.979Z,223.06
2023-07-20T08:08:07.842Z,223.21
2023-07-20T08:13:07.805Z,228.43
2023-07-20T08:18:07.817Z,232.93
2023-07-20T08:23:07.660Z,237.76
2023-07-20T08:28:07.595Z,236.75
2023-07-20T08:33:07.579Z,234.07
2023-07-20T08:38:07.427Z,234.24
2023-07-20T08:43:07.425Z,234.07
2023-07-20T08:48:07.300Z,238.79
2023-07-20T08:53:07.292Z,247.71
2023-07-20T08:58:07.294Z,247.34
2023-07-20T09:03:07.338Z,248.08
2023-07-20T09:08:07.022Z,243.35
2023-07-20T09:13:08.680Z,242.28
2023-07-20T09:18:06.917Z,240.00
2023-07-20T09:23:07.403Z,236.92
2023-07-20T09:28:06.775Z,230.18
2023-07-20T09:58:06.391Z,223.06
2023-07-20T10:03:06.366Z,229.22
2023-07-20T10:13:06.171Z,227.96
2023-07-20T10:18:07.010Z,231.46
2023-07-20T10:23:06.034Z,234.90
2023-07-20T10:28:05.984Z,233.42
2023-07-20T10:33:05.975Z,230.34
2023-07-20T10:38:05.888Z,228.12
2023-07-20T10:43:05.790Z,228.28
2023-07-20T10:48:05.835Z,226.25
2023-07-20T10:53:06.575Z,222.61
2023-07-20T10:58:05.622Z,226.56
2023-07-20T11:03:05.635Z,226.10
2023-07-20T11:08:05.984Z,225.95
2023-07-20T11:13:05.445Z,222.31
2023-07-20T11:18:05.341Z,221.72
2023-07-20T11:23:05.276Z,221.57
2023-07-20T11:28:05.214Z,220.25
2023-07-20T11:33:05.132Z,218.07
2023-07-20T11:38:05.175Z,215.95
2023-07-20T11:48:04.970Z,214.55
2023-07-20T11:53:04.961Z,216.79
2023-07-20T11:58:04.883Z,221.57
2023-07-20T12:03:04.799Z,224.57
2023-07-20T12:08:04.839Z,229.54
2023-07-20T12:13:04.588Z,239.65
2023-07-20T12:18:04.635Z,249.38
2023-07-20T12:23:04.469Z,253.57
2023-07-20T12:28:04.488Z,258.71
2023-07-20T12:33:04.360Z,262.81
2023-07-20T12:38:04.277Z,265.12
2023-07-20T12:43:04.353Z,267.47
2023-07-20T12:48:04.164Z,269.21
2023-07-20T12:53:04.067Z,272.98
2023-07-20T12:58:03.986Z,276.16
2023-07-20T13:13:03.794Z,278.71
2023-07-20T13:18:03.781Z,282.75
2023-07-20T13:23:03.657Z,285.18
2023-07-20T13:28:03.666Z,285.91
2023-07-20T13:33:07.128Z,286.41
2023-07-20T13:38:03.485Z,285.42
2023-07-20T13:43:03.433Z,286.90
2023-07-20T13:48:06.641Z,286.90
2023-07-20T13:58:03.241Z,278.71
2023-07-20T14:08:03.055Z,270.53
2023-07-20T14:13:02.983Z,267.91
2023-07-20T14:18:02.951Z,270.75
2023-07-20T14:23:02.854Z,268.56
2023-07-20T14:28:02.817Z,271.86
2023-07-20T14:33:02.820Z,271.19
2023-07-20T14:38:02.721Z,269.65
2023-07-20T14:43:02.648Z,269.21
2023-07-20T14:48:02.621Z,267.47
2023-07-20T14:53:06.289Z,267.04
2023-07-20T14:58:02.407Z,266.19
2023-07-20T15:03:02.366Z,268.34
2023-07-20T15:08:02.257Z,273.88
2023-07-20T15:13:02.198Z,281.79
2023-07-20T15:18:02.237Z,287.40
2023-07-20T15:23:02.138Z,291.69
2023-07-20T15:28:02.020Z,292.72
2023-07-20T15:38:01.875Z,291.18
2023-07-20T15:43:01.775Z,291.69
2023-07-20T15:48:01.846Z,294.80
2023-07-20T15:53:01.673Z,296.12
2023-07-20T15:58:01.632Z,295.59
2023-07-20T16:03:01.618Z,294.80
2023-07-20T16:08:01.632Z,295.86
2023-07-20T16:13:01.627Z,297.98
2023-07-20T16:18:01.408Z,299.05
2023-07-20T16:23:01.270Z,294.28
2023-07-20T16:28:01.172Z,292.21
2023-07-20T16:33:03.016Z,290.67
2023-07-20T16:48:00.964Z,288.90
2023-07-20T16:53:00.889Z,289.15
2023-07-20T16:58:00.837Z,288.40
2023-07-20T17:03:00.820Z,288.65
2023-07-20T17:08:00.741Z,287.40
2023-07-20T17:13:00.612Z,287.15
2023-07-20T17:18:00.635Z,289.91
2023-07-20T17:23:00.599Z,293.24
2023-07-20T17:33:00.496Z,296.38
2023-07-20T17:48:00.267Z,294.80
2023-07-20T17:53:00.217Z,296.38
2023-07-20T17:57:59.969Z,296.91
2023-07-20T18:03:00.061Z,297.71
2023-07-20T18:07:59.885Z,302.33
2023-07-20T18:12:59.956Z,304.27
2023-07-20T18:17:59.765Z,304.27
2023-07-20T18:22:59.629Z,306.80
2023-07-20T18:27:59.613Z,308.51
2023-07-20T18:32:59.920Z,310.24
2023-07-20T18:37:59.518Z,311.99
2023-07-20T18:42:59.429Z,308.22
2023-07-20T18:47:59.367Z,311.11
2023-07-20T18:52:59.273Z,313.17
2023-07-20T18:57:59.207Z,314.36
2023-07-20T19:02:59.186Z,317.36
2023-07-20T19:07:59.088Z,320.43
2023-07-20T19:12:59.066Z,321.67
2023-07-20T19:17:58.947Z,322.92
2023-07-20T19:22:58.887Z,324.50
2023-07-20T19:27:58.780Z,328.35
2023-07-20T19:32:58.738Z,326.74
2023-07-20T19:37:58.668Z,329.99
2023-07-20T19:42:58.663Z,333.97
2023-07-20T19:47:58.656Z,333.64
2023-07-20T19:57:58.356Z,340.14
2023-07-20T20:07:58.361Z,343.66
2023-07-20T20:12:58.206Z,344.37
2023-07-20T20:17:58.187Z,344.73
2023-07-20T20:22:58.130Z,349.08
2023-07-20T20:27:57.990Z,348.71
2023-07-20T20:32:57.975Z,350.93
2023-07-20T20:37:57.871Z,353.55
2023-07-20T20:42:57.863Z,353.17
2023-07-20T20:47:57.746Z,355.82
2023-07-20T20:52:57.755Z,358.12
2023-07-20T20:57:57.713Z,360.46
2023-07-20T21:02:57.638Z,363.22
2023-07-20T21:07:58.991Z,364.82
2023-07-20T21:12:57.496Z,367.24
2023-07-20T21:17:57.337Z,369.70
2023-07-20T21:22:57.297Z,370.94
2023-07-20T21:27:57.187Z,372.18
2023-07-20T21:32:57.310Z,371.77
2023-07-20T21:37:57.065Z,374.71
2023-07-20T21:42:56.973Z,375.13
2023-07-20T21:47:57.036Z,379.47
2023-07-20T21:52:56.882Z,379.26
2023-07-20T21:57:56.814Z,380.54
2023-07-20T22:02:56.869Z,383.79
2023-07-20T22:07:56.632Z,382.49
2023-07-20T22:12:56.607Z,386.43
2023-07-20T22:17:56.509Z,386.43
2023-07-20T22:22:56.600Z,385.55
2023-07-20T22:27:56.368Z,387.32
2023-07-20T22:32:56.665Z,386.88
2023-07-20T22:37:56.221Z,391.14
2023-07-20T22:42:56.269Z,395.50
2023-07-20T22:47:56.134Z,399.01
2023-07-20T22:52:56.115Z,402.10
2023-07-20T22:57:56.003Z,404.27
2023-07-20T23:02:56.098Z,405.73
2023-07-20T23:07:55.992Z,409.18
2023-07-20T23:12:55.832Z,412.43
2023-07-20T23:17:55.692Z,413.44
2023-07-20T23:22:55.635Z,418.06
2023-07-20T23:27:55.605Z,423.57
2023-07-20T23:32:55.553Z,421.19
2023-07-20T23:37:55.421Z,420.40
2023-07-20T23:42:55.356Z,421.72
2023-07-20T23:47:55.345Z,430.33
2023-07-20T23:52:55.240Z,431.15
2023-07-20T23:57:55.190Z,431.98
